Terminal Aerodrome Forecast
Issued by NWS

Home | Current Version | Previous Version | Text Only | Print | Product List | Glossary On
Versions: 1 2 3 4 5 6 7 8 9 10 11 12 13 14 15 16 17 18 19 20 21
000
FTUS42 KGSP 301158 CCA
TAFGMU
TAF COR
KGMU 301158Z 3012/3112 00000KT P6SM SCT250
     FM301300 36003KT P6SM SCT050
     FM301800 36004KT P6SM VCSH BKN045
      TEMPO 3019/3022 VRB10G20KT 4SM TSRA BKN040CB
     FM310000 35008KT P6SM SCT050=

USA.gov is the U.S. government's official web portal to all federal, state and local government web resources and services.